sensor_id;sensor_type;location;lat;lon;timestamp;P1;durP1;ratioP1;P2;durP2;ratioP2
29788;SDS011;64899;42.660;23.268;2023-01-13T00:00:47;13.05;;;8.80;;
29788;SDS011;64899;42.660;23.268;2023-01-13T00:03:13;14.27;;;9.20;;
29788;SDS011;64899;42.660;23.268;2023-01-13T00:05:39;14.85;;;9.00;;
29788;SDS011;64899;42.660;23.268;2023-01-13T00:08:04;16.02;;;9.85;;
29788;SDS011;64899;42.660;23.268;2023-01-13T00:10:31;14.82;;;9.45;;
29788;SDS011;64899;42.660;23.268;2023-01-13T00:12:57;14.88;;;9.75;;
29788;SDS011;64899;42.660;23.268;2023-01-13T00:15:23;14.23;;;9.85;;
29788;SDS011;64899;42.660;23.268;2023-01-13T00:17:48;14.88;;;9.48;;
29788;SDS011;64899;42.660;23.268;2023-01-13T00:20:13;13.02;;;8.32;;
29788;SDS011;64899;42.660;23.268;2023-01-13T00:22:39;14.38;;;8.95;;
29788;SDS011;64899;42.660;23.268;2023-01-13T00:25:05;13.00;;;8.82;;
29788;SDS011;64899;42.660;23.268;2023-01-13T00:27:30;11.95;;;8.25;;
29788;SDS011;64899;42.660;23.268;2023-01-13T00:29:56;13.00;;;8.75;;
29788;SDS011;64899;42.660;23.268;2023-01-13T00:32:21;13.13;;;7.93;;
29788;SDS011;64899;42.660;23.268;2023-01-13T00:34:47;12.13;;;8.18;;
29788;SDS011;64899;42.660;23.268;2023-01-13T00:37:12;11.77;;;7.93;;
29788;SDS011;64899;42.660;23.268;2023-01-13T00:39:38;11.73;;;8.18;;
29788;SDS011;64899;42.660;23.268;2023-01-13T00:42:04;11.93;;;8.30;;
29788;SDS011;64899;42.660;23.268;2023-01-13T00:44:48;11.20;;;7.45;;
29788;SDS011;64899;42.660;23.268;2023-01-13T00:47:14;10.70;;;7.68;;
29788;SDS011;64899;42.660;23.268;2023-01-13T00:49:39;10.18;;;6.68;;
29788;SDS011;64899;42.660;23.268;2023-01-13T00:52:04;10.00;;;7.22;;
29788;SDS011;64899;42.660;23.268;2023-01-13T00:54:30;9.65;;;6.70;;
29788;SDS011;64899;42.660;23.268;2023-01-13T00:56:55;9.88;;;7.15;;
29788;SDS011;64899;42.660;23.268;2023-01-13T00:59:21;11.15;;;7.18;;
29788;SDS011;64899;42.660;23.268;2023-01-13T01:01:46;9.55;;;6.60;;
29788;SDS011;64899;42.660;23.268;2023-01-13T01:04:12;11.43;;;7.15;;
29788;SDS011;64899;42.660;23.268;2023-01-13T01:06:37;10.50;;;7.65;;
29788;SDS011;64899;42.660;23.268;2023-01-13T01:09:03;10.73;;;7.47;;
29788;SDS011;64899;42.660;23.268;2023-01-13T01:11:30;10.30;;;7.00;;
29788;SDS011;64899;42.660;23.268;2023-01-13T01:13:57;10.48;;;7.40;;
29788;SDS011;64899;42.660;23.268;2023-01-13T01:16:24;10.38;;;7.20;;
29788;SDS011;64899;42.660;23.268;2023-01-13T01:18:51;12.45;;;8.10;;
29788;SDS011;64899;42.660;23.268;2023-01-13T01:21:17;12.25;;;7.82;;
29788;SDS011;64899;42.660;23.268;2023-01-13T01:23:43;12.18;;;8.32;;
29788;SDS011;64899;42.660;23.268;2023-01-13T01:26:22;11.57;;;7.75;;
29788;SDS011;64899;42.660;23.268;2023-01-13T01:28:49;9.82;;;6.93;;
29788;SDS011;64899;42.660;23.268;2023-01-13T01:33:40;11.50;;;7.55;;
29788;SDS011;64899;42.660;23.268;2023-01-13T01:36:07;12.65;;;8.20;;
29788;SDS011;64899;42.660;23.268;2023-01-13T01:38:33;10.82;;;7.47;;
29788;SDS011;64899;42.660;23.268;2023-01-13T01:40:58;13.10;;;8.98;;
29788;SDS011;64899;42.660;23.268;2023-01-13T01:46:30;11.40;;;7.10;;
29788;SDS011;64899;42.660;23.268;2023-01-13T01:49:38;11.02;;;7.78;;
29788;SDS011;64899;42.660;23.268;2023-01-13T01:51:55;11.68;;;7.88;;
29788;SDS011;64899;42.660;23.268;2023-01-13T01:54:31;12.13;;;8.48;;
29788;SDS011;64899;42.660;23.268;2023-01-13T01:57:32;11.77;;;8.32;;
29788;SDS011;64899;42.660;23.268;2023-01-13T02:00:03;10.95;;;7.32;;
29788;SDS011;64899;42.660;23.268;2023-01-13T02:02:29;11.45;;;7.72;;
29788;SDS011;64899;42.660;23.268;2023-01-13T02:04:55;13.00;;;8.55;;
29788;SDS011;64899;42.660;23.268;2023-01-13T02:07:26;13.50;;;8.52;;
29788;SDS011;64899;42.660;23.268;2023-01-13T02:09:53;11.70;;;7.57;;
29788;SDS011;64899;42.660;23.268;2023-01-13T02:12:19;11.40;;;7.18;;
29788;SDS011;64899;42.660;23.268;2023-01-13T02:17:44;11.38;;;7.95;;
29788;SDS011;64899;42.660;23.268;2023-01-13T02:38:13;11.15;;;7.57;;
29788;SDS011;64899;42.660;23.268;2023-01-13T02:41:03;10.15;;;7.18;;
29788;SDS011;64899;42.660;23.268;2023-01-13T02:43:51;11.02;;;6.75;;
29788;SDS011;64899;42.660;23.268;2023-01-13T02:49:32;9.90;;;6.63;;
29788;SDS011;64899;42.660;23.268;2023-01-13T02:52:20;9.88;;;6.55;;
29788;SDS011;64899;42.660;23.268;2023-01-13T02:54:51;12.40;;;7.45;;
29788;SDS011;64899;42.660;23.268;2023-01-13T02:57:19;10.80;;;7.35;;
29788;SDS011;64899;42.660;23.268;2023-01-13T02:59:45;12.93;;;8.35;;
29788;SDS011;64899;42.660;23.268;2023-01-13T03:02:12;9.63;;;6.88;;
29788;SDS011;64899;42.660;23.268;2023-01-13T03:04:46;9.85;;;6.80;;
29788;SDS011;64899;42.660;23.268;2023-01-13T03:07:13;8.02;;;6.40;;
29788;SDS011;64899;42.660;23.268;2023-01-13T03:09:58;10.88;;;7.20;;
29788;SDS011;64899;42.660;23.268;2023-01-13T03:12:39;7.05;;;5.70;;
29788;SDS011;64899;42.660;23.268;2023-01-13T03:23:48;8.40;;;6.32;;
29788;SDS011;64899;42.660;23.268;2023-01-13T03:26:18;9.30;;;6.50;;
29788;SDS011;64899;42.660;23.268;2023-01-13T03:28:51;8.40;;;6.10;;
29788;SDS011;64899;42.660;23.268;2023-01-13T03:31:22;7.72;;;5.90;;
29788;SDS011;64899;42.660;23.268;2023-01-13T03:34:06;9.13;;;6.28;;
29788;SDS011;64899;42.660;23.268;2023-01-13T03:36:35;10.25;;;6.40;;
29788;SDS011;64899;42.660;23.268;2023-01-13T03:39:08;9.50;;;6.18;;
29788;SDS011;64899;42.660;23.268;2023-01-13T03:41:37;8.48;;;6.10;;
29788;SDS011;64899;42.660;23.268;2023-01-13T03:44:17;7.70;;;5.50;;
29788;SDS011;64899;42.660;23.268;2023-01-13T03:47:06;8.38;;;5.65;;
29788;SDS011;64899;42.660;23.268;2023-01-13T03:49:59;8.48;;;5.85;;
29788;SDS011;64899;42.660;23.268;2023-01-13T03:52:33;8.00;;;6.10;;
29788;SDS011;64899;42.660;23.268;2023-01-13T03:55:02;7.40;;;5.63;;
29788;SDS011;64899;42.660;23.268;2023-01-13T03:57:33;8.13;;;6.25;;
29788;SDS011;64899;42.660;23.268;2023-01-13T04:00:00;8.18;;;5.85;;
29788;SDS011;64899;42.660;23.268;2023-01-13T04:05:08;8.32;;;6.50;;
29788;SDS011;64899;42.660;23.268;2023-01-13T04:10:13;9.00;;;6.45;;
29788;SDS011;64899;42.660;23.268;2023-01-13T04:12:45;8.98;;;6.43;;
29788;SDS011;64899;42.660;23.268;2023-01-13T04:15:34;9.90;;;6.50;;
29788;SDS011;64899;42.660;23.268;2023-01-13T04:18:07;8.73;;;6.10;;
29788;SDS011;64899;42.660;23.268;2023-01-13T04:20:43;8.20;;;6.05;;
29788;SDS011;64899;42.660;23.268;2023-01-13T04:23:10;8.02;;;6.53;;
29788;SDS011;64899;42.660;23.268;2023-01-13T04:25:37;11.93;;;8.43;;
29788;SDS011;64899;42.660;23.268;2023-01-13T04:28:03;13.57;;;8.57;;
29788;SDS011;64899;42.660;23.268;2023-01-13T04:30:29;14.25;;;9.25;;
29788;SDS011;64899;42.660;23.268;2023-01-13T04:32:54;12.68;;;8.93;;
29788;SDS011;64899;42.660;23.268;2023-01-13T04:35:19;9.73;;;7.68;;
29788;SDS011;64899;42.660;23.268;2023-01-13T04:37:45;9.75;;;6.63;;
29788;SDS011;64899;42.660;23.268;2023-01-13T04:40:10;10.05;;;6.75;;
29788;SDS011;64899;42.660;23.268;2023-01-13T04:42:36;11.77;;;7.13;;
29788;SDS011;64899;42.660;23.268;2023-01-13T04:45:01;9.20;;;6.80;;
29788;SDS011;64899;42.660;23.268;2023-01-13T04:47:26;9.57;;;7.22;;
29788;SDS011;64899;42.660;23.268;2023-01-13T04:49:52;9.55;;;6.72;;
29788;SDS011;64899;42.660;23.268;2023-01-13T04:52:17;9.15;;;7.43;;
29788;SDS011;64899;42.660;23.268;2023-01-13T04:54:42;9.43;;;7.05;;
29788;SDS011;64899;42.660;23.268;2023-01-13T04:57:08;11.05;;;7.05;;
29788;SDS011;64899;42.660;23.268;2023-01-13T04:59:33;9.15;;;7.32;;
29788;SDS011;64899;42.660;23.268;2023-01-13T05:01:59;8.32;;;6.65;;
29788;SDS011;64899;42.660;23.268;2023-01-13T05:04:24;8.32;;;6.53;;
29788;SDS011;64899;42.660;23.268;2023-01-13T05:06:49;8.77;;;6.50;;
29788;SDS011;64899;42.660;23.268;2023-01-13T05:09:15;11.27;;;6.80;;
29788;SDS011;64899;42.660;23.268;2023-01-13T05:11:40;8.18;;;6.55;;
29788;SDS011;64899;42.660;23.268;2023-01-13T05:14:24;11.27;;;7.32;;
29788;SDS011;64899;42.660;23.268;2023-01-13T05:17:09;11.80;;;8.30;;
29788;SDS011;64899;42.660;23.268;2023-01-13T05:19:43;9.18;;;6.95;;
29788;SDS011;64899;42.660;23.268;2023-01-13T05:22:08;11.10;;;7.53;;
29788;SDS011;64899;42.660;23.268;2023-01-13T05:24:52;11.15;;;7.78;;
29788;SDS011;64899;42.660;23.268;2023-01-13T05:27:36;15.52;;;8.57;;
29788;SDS011;64899;42.660;23.268;2023-01-13T05:30:02;13.57;;;9.00;;
29788;SDS011;64899;42.660;23.268;2023-01-13T05:32:28;12.70;;;8.80;;
29788;SDS011;64899;42.660;23.268;2023-01-13T05:34:54;15.38;;;9.45;;
29788;SDS011;64899;42.660;23.268;2023-01-13T05:37:20;14.88;;;10.45;;
29788;SDS011;64899;42.660;23.268;2023-01-13T05:39:46;15.77;;;10.82;;
29788;SDS011;64899;42.660;23.268;2023-01-13T05:42:30;15.73;;;9.95;;
29788;SDS011;64899;42.660;23.268;2023-01-13T05:45:13;17.85;;;10.85;;
29788;SDS011;64899;42.660;23.268;2023-01-13T05:47:39;14.18;;;9.82;;
29788;SDS011;64899;42.660;23.268;2023-01-13T05:50:04;13.93;;;9.43;;
29788;SDS011;64899;42.660;23.268;2023-01-13T05:52:30;14.73;;;10.02;;
29788;SDS011;64899;42.660;23.268;2023-01-13T05:54:56;14.45;;;9.65;;
29788;SDS011;64899;42.660;23.268;2023-01-13T05:57:21;17.50;;;11.48;;
29788;SDS011;64899;42.660;23.268;2023-01-13T05:59:46;16.38;;;10.80;;
29788;SDS011;64899;42.660;23.268;2023-01-13T06:02:12;19.45;;;11.57;;
29788;SDS011;64899;42.660;23.268;2023-01-13T06:04:37;15.57;;;11.23;;
29788;SDS011;64899;42.660;23.268;2023-01-13T06:07:03;15.30;;;11.13;;
29788;SDS011;64899;42.660;23.268;2023-01-13T06:09:28;17.98;;;12.25;;
29788;SDS011;64899;42.660;23.268;2023-01-13T06:11:53;19.90;;;11.45;;
29788;SDS011;64899;42.660;23.268;2023-01-13T06:14:19;16.25;;;11.05;;
29788;SDS011;64899;42.660;23.268;2023-01-13T06:16:44;23.65;;;13.77;;
29788;SDS011;64899;42.660;23.268;2023-01-13T06:19:10;20.88;;;13.35;;
29788;SDS011;64899;42.660;23.268;2023-01-13T06:21:40;23.10;;;13.63;;
29788;SDS011;64899;42.660;23.268;2023-01-13T06:24:06;23.15;;;14.00;;
29788;SDS011;64899;42.660;23.268;2023-01-13T06:26:36;20.35;;;13.27;;
29788;SDS011;64899;42.660;23.268;2023-01-13T06:29:03;21.05;;;13.25;;
29788;SDS011;64899;42.660;23.268;2023-01-13T06:31:29;19.52;;;12.52;;
29788;SDS011;64899;42.660;23.268;2023-01-13T06:34:03;21.10;;;12.35;;
29788;SDS011;64899;42.660;23.268;2023-01-13T06:36:40;17.88;;;12.02;;
29788;SDS011;64899;42.660;23.268;2023-01-13T06:39:12;20.83;;;12.95;;
29788;SDS011;64899;42.660;23.268;2023-01-13T06:41:40;19.58;;;13.00;;
29788;SDS011;64899;42.660;23.268;2023-01-13T06:44:24;18.75;;;12.40;;
29788;SDS011;64899;42.660;23.268;2023-01-13T06:46:52;19.65;;;12.93;;
29788;SDS011;64899;42.660;23.268;2023-01-13T06:49:18;18.17;;;12.15;;
29788;SDS011;64899;42.660;23.268;2023-01-13T06:51:43;20.08;;;12.18;;
29788;SDS011;64899;42.660;23.268;2023-01-13T06:54:09;18.73;;;11.98;;
29788;SDS011;64899;42.660;23.268;2023-01-13T06:56:35;16.08;;;10.88;;
29788;SDS011;64899;42.660;23.268;2023-01-13T06:59:00;15.25;;;10.48;;
29788;SDS011;64899;42.660;23.268;2023-01-13T07:01:26;19.50;;;12.35;;
29788;SDS011;64899;42.660;23.268;2023-01-13T07:03:51;16.55;;;10.55;;
29788;SDS011;64899;42.660;23.268;2023-01-13T07:06:17;22.48;;;12.73;;
29788;SDS011;64899;42.660;23.268;2023-01-13T07:08:42;18.27;;;10.95;;
29788;SDS011;64899;42.660;23.268;2023-01-13T07:11:07;19.65;;;12.30;;
29788;SDS011;64899;42.660;23.268;2023-01-13T07:13:33;19.25;;;12.07;;
29788;SDS011;64899;42.660;23.268;2023-01-13T07:16:17;20.92;;;11.93;;
29788;SDS011;64899;42.660;23.268;2023-01-13T07:18:43;21.05;;;12.73;;
29788;SDS011;64899;42.660;23.268;2023-01-13T07:21:09;21.48;;;11.35;;
29788;SDS011;64899;42.660;23.268;2023-01-13T07:23:37;18.00;;;11.15;;
29788;SDS011;64899;42.660;23.268;2023-01-13T07:26:04;18.00;;;11.38;;
29788;SDS011;64899;42.660;23.268;2023-01-13T07:28:30;16.80;;;10.73;;
29788;SDS011;64899;42.660;23.268;2023-01-13T07:30:56;13.77;;;8.82;;
29788;SDS011;64899;42.660;23.268;2023-01-13T07:33:22;14.95;;;10.27;;
29788;SDS011;64899;42.660;23.268;2023-01-13T07:35:54;13.88;;;9.52;;
29788;SDS011;64899;42.660;23.268;2023-01-13T07:38:24;14.50;;;9.18;;
29788;SDS011;64899;42.660;23.268;2023-01-13T07:40:49;13.63;;;8.68;;
29788;SDS011;64899;42.660;23.268;2023-01-13T07:43:15;11.95;;;8.13;;
29788;SDS011;64899;42.660;23.268;2023-01-13T07:45:59;12.43;;;8.45;;
29788;SDS011;64899;42.660;23.268;2023-01-13T07:48:29;13.38;;;8.63;;
29788;SDS011;64899;42.660;23.268;2023-01-13T07:50:55;12.05;;;8.75;;
29788;SDS011;64899;42.660;23.268;2023-01-13T07:53:21;14.48;;;9.68;;
29788;SDS011;64899;42.660;23.268;2023-01-13T07:55:49;11.98;;;7.75;;
29788;SDS011;64899;42.660;23.268;2023-01-13T07:58:14;12.60;;;8.48;;
29788;SDS011;64899;42.660;23.268;2023-01-13T08:00:40;13.18;;;8.15;;
29788;SDS011;64899;42.660;23.268;2023-01-13T08:03:05;14.40;;;8.35;;
29788;SDS011;64899;42.660;23.268;2023-01-13T08:05:30;11.80;;;8.23;;
29788;SDS011;64899;42.660;23.268;2023-01-13T08:07:56;11.60;;;8.50;;
29788;SDS011;64899;42.660;23.268;2023-01-13T08:10:21;13.05;;;7.97;;
29788;SDS011;64899;42.660;23.268;2023-01-13T08:12:47;14.07;;;8.02;;
29788;SDS011;64899;42.660;23.268;2023-01-13T08:17:56;11.48;;;7.30;;
29788;SDS011;64899;42.660;23.268;2023-01-13T08:20:23;10.80;;;7.28;;
29788;SDS011;64899;42.660;23.268;2023-01-13T08:22:49;11.90;;;7.53;;
29788;SDS011;64899;42.660;23.268;2023-01-13T08:25:14;15.65;;;9.07;;
29788;SDS011;64899;42.660;23.268;2023-01-13T08:27:40;17.60;;;10.10;;
29788;SDS011;64899;42.660;23.268;2023-01-13T08:30:05;13.50;;;7.80;;
29788;SDS011;64899;42.660;23.268;2023-01-13T08:32:31;20.30;;;8.73;;
29788;SDS011;64899;42.660;23.268;2023-01-13T08:34:57;14.70;;;8.20;;
29788;SDS011;64899;42.660;23.268;2023-01-13T08:37:22;13.48;;;6.72;;
29788;SDS011;64899;42.660;23.268;2023-01-13T08:39:48;10.55;;;7.25;;
29788;SDS011;64899;42.660;23.268;2023-01-13T08:42:13;13.80;;;7.75;;
29788;SDS011;64899;42.660;23.268;2023-01-13T08:44:39;12.20;;;7.72;;
29788;SDS011;64899;42.660;23.268;2023-01-13T08:47:04;12.10;;;8.13;;
29788;SDS011;64899;42.660;23.268;2023-01-13T08:49:30;13.52;;;7.80;;
29788;SDS011;64899;42.660;23.268;2023-01-13T08:51:56;13.57;;;7.90;;
29788;SDS011;64899;42.660;23.268;2023-01-13T08:54:21;10.88;;;7.45;;
29788;SDS011;64899;42.660;23.268;2023-01-13T08:56:46;19.75;;;7.47;;
29788;SDS011;64899;42.660;23.268;2023-01-13T08:59:13;13.48;;;7.35;;
29788;SDS011;64899;42.660;23.268;2023-01-13T09:01:39;15.07;;;7.90;;
29788;SDS011;64899;42.660;23.268;2023-01-13T09:04:05;15.57;;;8.25;;
29788;SDS011;64899;42.660;23.268;2023-01-13T09:06:32;15.45;;;7.20;;
29788;SDS011;64899;42.660;23.268;2023-01-13T09:08:58;13.32;;;6.50;;
29788;SDS011;64899;42.660;23.268;2023-01-13T09:11:31;12.20;;;6.57;;
29788;SDS011;64899;42.660;23.268;2023-01-13T09:14:19;8.48;;;5.60;;
29788;SDS011;64899;42.660;23.268;2023-01-13T09:16:46;8.40;;;5.78;;
29788;SDS011;64899;42.660;23.268;2023-01-13T09:19:11;9.35;;;5.68;;
29788;SDS011;64899;42.660;23.268;2023-01-13T09:21:36;9.00;;;5.03;;
29788;SDS011;64899;42.660;23.268;2023-01-13T09:24:02;8.40;;;5.43;;
29788;SDS011;64899;42.660;23.268;2023-01-13T09:26:27;7.00;;;4.75;;
29788;SDS011;64899;42.660;23.268;2023-01-13T09:28:53;6.38;;;4.30;;
29788;SDS011;64899;42.660;23.268;2023-01-13T09:31:18;5.65;;;3.83;;
29788;SDS011;64899;42.660;23.268;2023-01-13T09:33:44;5.80;;;4.05;;
29788;SDS011;64899;42.660;23.268;2023-01-13T09:36:27;4.82;;;3.08;;
29788;SDS011;64899;42.660;23.268;2023-01-13T09:38:53;6.13;;;2.88;;
29788;SDS011;64899;42.660;23.268;2023-01-13T09:41:19;4.90;;;3.47;;
29788;SDS011;64899;42.660;23.268;2023-01-13T09:44:04;6.55;;;4.03;;
29788;SDS011;64899;42.660;23.268;2023-01-13T09:46:34;5.03;;;3.67;;
29788;SDS011;64899;42.660;23.268;2023-01-13T09:49:22;5.57;;;4.00;;
29788;SDS011;64899;42.660;23.268;2023-01-13T09:54:43;4.00;;;3.00;;
29788;SDS011;64899;42.660;23.268;2023-01-13T09:57:13;7.55;;;3.75;;
29788;SDS011;64899;42.660;23.268;2023-01-13T09:59:40;5.63;;;4.07;;
29788;SDS011;64899;42.660;23.268;2023-01-13T10:04:38;4.80;;;3.88;;
29788;SDS011;64899;42.660;23.268;2023-01-13T10:07:03;8.75;;;4.25;;
29788;SDS011;64899;42.660;23.268;2023-01-13T10:09:38;6.10;;;4.35;;
29788;SDS011;64899;42.660;23.268;2023-01-13T10:12:08;6.03;;;4.20;;
29788;SDS011;64899;42.660;23.268;2023-01-13T10:14:54;7.47;;;4.22;;
29788;SDS011;64899;42.660;23.268;2023-01-13T10:17:25;7.28;;;4.30;;
29788;SDS011;64899;42.660;23.268;2023-01-13T10:20:04;6.18;;;4.43;;
29788;SDS011;64899;42.660;23.268;2023-01-13T10:27:42;5.68;;;4.22;;
29788;SDS011;64899;42.660;23.268;2023-01-13T10:32:45;8.07;;;4.63;;
29788;SDS011;64899;42.660;23.268;2023-01-13T10:35:12;8.07;;;4.88;;
29788;SDS011;64899;42.660;23.268;2023-01-13T10:37:37;7.57;;;4.82;;
29788;SDS011;64899;42.660;23.268;2023-01-13T10:40:03;5.75;;;4.13;;
29788;SDS011;64899;42.660;23.268;2023-01-13T10:42:29;6.32;;;4.28;;
29788;SDS011;64899;42.660;23.268;2023-01-13T10:44:58;6.70;;;3.83;;
29788;SDS011;64899;42.660;23.268;2023-01-13T10:47:42;5.25;;;3.88;;
29788;SDS011;64899;42.660;23.268;2023-01-13T10:52:38;7.10;;;4.93;;
29788;SDS011;64899;42.660;23.268;2023-01-13T10:57:52;5.50;;;3.88;;
29788;SDS011;64899;42.660;23.268;2023-01-13T11:00:25;8.18;;;3.22;;
29788;SDS011;64899;42.660;23.268;2023-01-13T11:05:51;6.90;;;3.75;;
29788;SDS011;64899;42.660;23.268;2023-01-13T11:08:22;6.38;;;4.40;;
29788;SDS011;64899;42.660;23.268;2023-01-13T11:10:51;7.53;;;4.40;;
29788;SDS011;64899;42.660;23.268;2023-01-13T11:18:36;7.18;;;4.47;;
29788;SDS011;64899;42.660;23.268;2023-01-13T11:21:32;8.38;;;5.18;;
29788;SDS011;64899;42.660;23.268;2023-01-13T11:27:03;11.18;;;5.47;;
29788;SDS011;64899;42.660;23.268;2023-01-13T11:32:27;7.35;;;4.50;;
29788;SDS011;64899;42.660;23.268;2023-01-13T11:34:58;7.43;;;4.68;;
29788;SDS011;64899;42.660;23.268;2023-01-13T11:39:53;7.30;;;5.18;;
29788;SDS011;64899;42.660;23.268;2023-01-13T11:47:31;9.88;;;4.80;;
29788;SDS011;64899;42.660;23.268;2023-01-13T11:49:57;6.22;;;5.15;;
29788;SDS011;64899;42.660;23.268;2023-01-13T11:54:57;10.63;;;5.28;;
29788;SDS011;64899;42.660;23.268;2023-01-13T12:02:52;7.70;;;5.43;;
29788;SDS011;64899;42.660;23.268;2023-01-13T12:21:39;9.32;;;6.03;;
29788;SDS011;64899;42.660;23.268;2023-01-13T12:24:31;10.27;;;5.57;;
29788;SDS011;64899;42.660;23.268;2023-01-13T12:27:45;10.27;;;5.63;;
29788;SDS011;64899;42.660;23.268;2023-01-13T12:32:30;9.88;;;6.00;;
29788;SDS011;64899;42.660;23.268;2023-01-13T12:43:16;7.13;;;5.32;;
29788;SDS011;64899;42.660;23.268;2023-01-13T12:51:24;11.90;;;6.88;;
29788;SDS011;64899;42.660;23.268;2023-01-13T12:53:50;11.52;;;6.55;;
29788;SDS011;64899;42.660;23.268;2023-01-13T12:56:57;10.60;;;6.60;;
29788;SDS011;64899;42.660;23.268;2023-01-13T13:01:43;8.63;;;5.45;;
29788;SDS011;64899;42.660;23.268;2023-01-13T13:04:13;9.63;;;5.80;;
29788;SDS011;64899;42.660;23.268;2023-01-13T13:06:44;9.85;;;5.35;;
29788;SDS011;64899;42.660;23.268;2023-01-13T13:11:41;6.93;;;5.03;;
29788;SDS011;64899;42.660;23.268;2023-01-13T13:17:01;8.32;;;5.53;;
29788;SDS011;64899;42.660;23.268;2023-01-13T13:24:33;6.90;;;5.07;;
29788;SDS011;64899;42.660;23.268;2023-01-13T13:38:29;7.13;;;4.45;;
29788;SDS011;64899;42.660;23.268;2023-01-13T13:41:17;8.45;;;5.40;;
29788;SDS011;64899;42.660;23.268;2023-01-13T13:44:07;8.30;;;5.00;;
29788;SDS011;64899;42.660;23.268;2023-01-13T13:46:56;6.43;;;5.30;;
29788;SDS011;64899;42.660;23.268;2023-01-13T13:49:33;7.60;;;5.00;;
29788;SDS011;64899;42.660;23.268;2023-01-13T13:52:04;8.40;;;5.07;;
29788;SDS011;64899;42.660;23.268;2023-01-13T13:54:35;7.53;;;5.00;;
29788;SDS011;64899;42.660;23.268;2023-01-13T13:57:01;9.75;;;5.50;;
29788;SDS011;64899;42.660;23.268;2023-01-13T13:59:27;7.03;;;4.57;;
29788;SDS011;64899;42.660;23.268;2023-01-13T14:01:57;7.50;;;5.13;;
29788;SDS011;64899;42.660;23.268;2023-01-13T14:04:32;8.38;;;4.55;;
29788;SDS011;64899;42.660;23.268;2023-01-13T14:07:04;6.63;;;4.82;;
29788;SDS011;64899;42.660;23.268;2023-01-13T14:09:45;6.18;;;4.30;;
29788;SDS011;64899;42.660;23.268;2023-01-13T14:12:24;8.18;;;5.22;;
29788;SDS011;64899;42.660;23.268;2023-01-13T14:14:51;11.18;;;5.05;;
29788;SDS011;64899;42.660;23.268;2023-01-13T14:17:24;7.07;;;5.45;;
29788;SDS011;64899;42.660;23.268;2023-01-13T14:19:55;8.77;;;5.65;;
29788;SDS011;64899;42.660;23.268;2023-01-13T14:22:22;9.07;;;5.88;;
29788;SDS011;64899;42.660;23.268;2023-01-13T14:24:47;7.57;;;5.40;;
29788;SDS011;64899;42.660;23.268;2023-01-13T14:27:19;12.05;;;5.72;;
29788;SDS011;64899;42.660;23.268;2023-01-13T14:29:45;8.38;;;5.53;;
29788;SDS011;64899;42.660;23.268;2023-01-13T14:32:16;6.72;;;5.00;;
29788;SDS011;64899;42.660;23.268;2023-01-13T14:34:43;7.13;;;5.53;;
29788;SDS011;64899;42.660;23.268;2023-01-13T14:37:20;7.78;;;5.40;;
29788;SDS011;64899;42.660;23.268;2023-01-13T14:39:46;8.13;;;5.20;;
29788;SDS011;64899;42.660;23.268;2023-01-13T14:42:12;6.45;;;5.10;;
29788;SDS011;64899;42.660;23.268;2023-01-13T14:44:38;12.48;;;5.47;;
29788;SDS011;64899;42.660;23.268;2023-01-13T14:47:41;8.13;;;5.28;;
29788;SDS011;64899;42.660;23.268;2023-01-13T14:52:36;9.80;;;6.43;;
29788;SDS011;64899;42.660;23.268;2023-01-13T14:57:52;14.35;;;7.93;;
29788;SDS011;64899;42.660;23.268;2023-01-13T15:00:20;13.38;;;7.25;;
29788;SDS011;64899;42.660;23.268;2023-01-13T15:08:05;16.10;;;9.57;;
29788;SDS011;64899;42.660;23.268;2023-01-13T15:13:23;27.15;;;13.10;;
29788;SDS011;64899;42.660;23.268;2023-01-13T15:15:57;23.23;;;12.10;;
29788;SDS011;64899;42.660;23.268;2023-01-13T15:18:24;22.60;;;13.23;;
29788;SDS011;64899;42.660;23.268;2023-01-13T15:20:49;22.88;;;13.27;;
29788;SDS011;64899;42.660;23.268;2023-01-13T15:23:16;24.88;;;13.50;;
29788;SDS011;64899;42.660;23.268;2023-01-13T15:25:42;25.90;;;13.38;;
29788;SDS011;64899;42.660;23.268;2023-01-13T15:28:22;26.00;;;14.05;;
29788;SDS011;64899;42.660;23.268;2023-01-13T15:30:49;22.38;;;13.43;;
29788;SDS011;64899;42.660;23.268;2023-01-13T15:33:15;23.15;;;13.30;;
29788;SDS011;64899;42.660;23.268;2023-01-13T15:35:42;25.63;;;13.57;;
29788;SDS011;64899;42.660;23.268;2023-01-13T15:38:10;18.58;;;10.95;;
29788;SDS011;64899;42.660;23.268;2023-01-13T15:40:37;20.92;;;11.60;;
29788;SDS011;64899;42.660;23.268;2023-01-13T15:43:02;20.33;;;11.82;;
29788;SDS011;64899;42.660;23.268;2023-01-13T15:45:46;18.83;;;10.88;;
29788;SDS011;64899;42.660;23.268;2023-01-13T15:48:30;27.27;;;14.48;;
29788;SDS011;64899;42.660;23.268;2023-01-13T15:50:57;26.70;;;14.73;;
29788;SDS011;64899;42.660;23.268;2023-01-13T15:53:22;26.40;;;15.07;;
29788;SDS011;64899;42.660;23.268;2023-01-13T15:55:49;25.27;;;15.50;;
29788;SDS011;64899;42.660;23.268;2023-01-13T15:58:17;25.40;;;14.32;;
29788;SDS011;64899;42.660;23.268;2023-01-13T16:00:44;26.00;;;14.10;;
29788;SDS011;64899;42.660;23.268;2023-01-13T16:03:12;31.50;;;17.23;;
29788;SDS011;64899;42.660;23.268;2023-01-13T16:05:39;25.02;;;13.98;;
29788;SDS011;64899;42.660;23.268;2023-01-13T16:08:04;27.90;;;15.43;;
29788;SDS011;64899;42.660;23.268;2023-01-13T16:10:39;25.02;;;14.23;;
29788;SDS011;64899;42.660;23.268;2023-01-13T16:13:05;25.90;;;15.00;;
29788;SDS011;64899;42.660;23.268;2023-01-13T16:15:30;29.55;;;16.77;;
29788;SDS011;64899;42.660;23.268;2023-01-13T16:17:57;26.52;;;15.93;;
29788;SDS011;64899;42.660;23.268;2023-01-13T16:20:24;28.77;;;16.83;;
29788;SDS011;64899;42.660;23.268;2023-01-13T16:22:50;28.52;;;16.15;;
29788;SDS011;64899;42.660;23.268;2023-01-13T16:25:25;26.08;;;15.32;;
29788;SDS011;64899;42.660;23.268;2023-01-13T16:27:52;31.45;;;16.02;;
29788;SDS011;64899;42.660;23.268;2023-01-13T16:30:21;31.25;;;17.58;;
29788;SDS011;64899;42.660;23.268;2023-01-13T16:32:49;35.45;;;17.95;;
29788;SDS011;64899;42.660;23.268;2023-01-13T16:35:15;31.83;;;17.08;;
29788;SDS011;64899;42.660;23.268;2023-01-13T16:37:40;29.65;;;16.77;;
29788;SDS011;64899;42.660;23.268;2023-01-13T16:40:11;34.55;;;18.15;;
29788;SDS011;64899;42.660;23.268;2023-01-13T16:42:42;35.95;;;19.38;;
29788;SDS011;64899;42.660;23.268;2023-01-13T16:45:07;37.50;;;19.30;;
29788;SDS011;64899;42.660;23.268;2023-01-13T16:47:33;32.50;;;18.33;;
29788;SDS011;64899;42.660;23.268;2023-01-13T16:49:58;35.95;;;18.75;;
29788;SDS011;64899;42.660;23.268;2023-01-13T16:52:24;32.88;;;19.30;;
29788;SDS011;64899;42.660;23.268;2023-01-13T16:54:49;36.70;;;18.77;;
29788;SDS011;64899;42.660;23.268;2023-01-13T16:57:15;38.00;;;19.48;;
29788;SDS011;64899;42.660;23.268;2023-01-13T16:59:40;33.50;;;19.08;;
29788;SDS011;64899;42.660;23.268;2023-01-13T17:02:10;38.45;;;20.30;;
29788;SDS011;64899;42.660;23.268;2023-01-13T17:04:39;39.85;;;20.63;;
29788;SDS011;64899;42.660;23.268;2023-01-13T17:07:05;46.78;;;25.25;;
29788;SDS011;64899;42.660;23.268;2023-01-13T17:09:32;49.70;;;24.67;;
29788;SDS011;64899;42.660;23.268;2023-01-13T17:11:58;41.70;;;21.17;;
29788;SDS011;64899;42.660;23.268;2023-01-13T17:14:24;35.05;;;20.77;;
29788;SDS011;64899;42.660;23.268;2023-01-13T17:16:50;34.53;;;19.15;;
29788;SDS011;64899;42.660;23.268;2023-01-13T17:19:17;34.75;;;18.77;;
29788;SDS011;64899;42.660;23.268;2023-01-13T17:21:43;33.08;;;17.52;;